San Pedro Sula, Honduras
Current Conditions -  °F | °C
As of 6:00 PM on Monday 20 Oct 2014 (Local Time) from MHLM Reporting Station
Thunderstorm Thunderstorm  
Wind Chill: 82°   Ceiling: 25000
Heat Index: 89°   Visibility: 6mi
Dew Point: 75°   Wind: 5mph
Humidity: 79%   Direction: 90°E
Pressure: 29.71"   Gusts: NA
Location:  15.47°N, 88.03°W
Report Text: MHLM 210000Z 09004KT 9999 TS SCT026CB BKN250 28/24 Q1006 A2971BECMG 8000 VCSH
Loading
Personal Weather Stations






























Interactive Weather Map
Tropical Storm Tracking
New forecast layout! Learn more

10-Day Weather Forecast

Advertisements
Track Severe Weather on mobile